Time;durP1;ratioP1;P1;durP2;ratioP2;P2;SDS_P1;SDS_P2;PMS_P1;PMS_P2;Temp;Humidity;BMP_temperature;BMP_pressure;BME280_temperature;BME280_humidity;BME280_pressure;Samples;Min_cycle;Max_cycle;Signal;HPM_P1;HPM_P2
2022/07/02 00:00:47;;;;;;;0.20;0.13;;;23.90;44.80;;;;;;6277414;28;20043;-46
2022/07/02 00:03:51;;;;;;;0.17;0.10;;;23.90;44.80;;;;;;6258860;28;20051;-46
2022/07/02 00:10:02;;;;;;;0.20;0.15;;;23.80;45.40;;;;;;6260939;28;20052;-45
2022/07/02 00:13:14;;;;;;;0.10;0.10;;;23.80;44.80;;;;;;6288212;28;20039;-44
2022/07/02 00:16:15;;;;;;;0.10;0.10;;;23.80;44.90;;;;;;6289414;28;20040;-45
2022/07/02 00:19:18;;;;;;;0.38;0.10;;;23.80;44.90;;;;;;6286573;28;20144;-42
2022/07/02 00:22:20;;;;;;;0.13;0.10;;;23.90;45.00;;;;;;6294184;28;20042;-47
2022/07/02 00:25:24;;;;;;;0.30;0.17;;;23.70;44.90;;;;;;6279734;28;20036;-43
2022/07/02 00:28:28;;;;;;;0.32;0.20;;;23.80;45.10;;;;;;6264317;28;20043;-46
2022/07/02 00:31:38;;;;;;;0.22;0.13;;;23.80;45.10;;;;;;6281883;28;20174;-47
2022/07/02 00:34:44;;;;;;;0.30;0.13;;;23.70;45.10;;;;;;6278822;28;20050;-44
2022/07/02 00:37:55;;;;;;;0.17;0.10;;;23.80;45.20;;;;;;6261617;28;20106;-45
2022/07/02 00:40:59;;;;;;;0.30;0.20;;;23.70;45.10;;;;;;6278938;28;20039;-46
2022/07/02 00:44:09;;;;;;;0.32;0.20;;;23.70;45.30;;;;;;6259521;28;20048;-45
2022/07/02 00:47:13;;;;;;;0.15;0.10;;;23.70;45.20;;;;;;6290105;28;20043;-47
2022/07/02 00:50:16;;;;;;;0.35;0.20;;;23.70;45.30;;;;;;6280809;28;20142;-46
2022/07/02 00:53:17;;;;;;;0.10;0.10;;;23.70;45.30;;;;;;6287563;28;20051;-43
2022/07/02 00:56:19;;;;;;;0.13;0.10;;;23.70;45.30;;;;;;6287381;28;20051;-46
2022/07/02 00:59:22;;;;;;;0.17;0.13;;;23.70;45.40;;;;;;6288770;28;20139;-44
2022/07/02 01:02:32;;;;;;;0.10;0.10;;;23.60;45.40;;;;;;6270155;28;20043;-43
2022/07/02 01:05:35;;;;;;;0.47;0.28;;;23.60;45.40;;;;;;6283719;28;20915;-46
2022/07/02 01:15:14;;;;;;;;;;;23.70;45.50;;;;;;6270898;28;20047;-47
2022/07/02 01:18:17;;;;;;;0.30;0.20;;;23.80;45.50;;;;;;6283391;28;19927;-42
2022/07/02 01:21:19;;;;;;;0.10;0.10;;;23.50;45.30;;;;;;6291807;28;20153;-49
2022/07/02 01:24:24;;;;;;;0.47;0.20;;;23.60;45.50;;;;;;6289576;28;20055;-42
2022/07/02 01:27:25;;;;;;;0.30;0.20;;;23.60;45.40;;;;;;6275531;28;20300;-46
2022/07/02 01:30:27;;;;;;;0.20;0.20;;;23.70;45.50;;;;;;6270241;28;20135;-45
2022/07/02 01:33:35;;;;;;;0.25;0.20;;;23.60;45.40;;;;;;6269709;28;20046;-44
2022/07/02 01:36:37;;;;;;;0.13;0.10;;;23.60;45.40;;;;;;6273043;28;20413;-46
2022/07/02 01:39:41;;;;;;;0.30;0.20;;;23.60;45.40;;;;;;6274225;28;20093;-43
2022/07/02 01:45:59;;;;;;;0.30;0.20;;;23.70;45.50;;;;;;6263378;28;20040;-45
2022/07/02 01:49:01;;;;;;;0.20;0.20;;;23.60;45.50;;;;;;6272729;28;20352;-46
2022/07/02 01:52:04;;;;;;;0.20;0.13;;;23.70;45.50;;;;;;6249299;28;20097;-43
2022/07/02 01:55:06;;;;;;;0.20;0.10;;;23.50;45.40;;;;;;6264738;28;20997;-44
2022/07/02 01:58:08;;;;;;;0.40;0.10;;;23.50;45.40;;;;;;6260226;28;20588;-42
2022/07/02 02:01:10;;;;;;;0.40;0.20;;;23.60;45.50;;;;;;6285472;27;20054;-44
2022/07/02 02:04:20;;;;;;;0.10;0.10;;;23.70;45.60;;;;;;6282318;28;20633;-41
2022/07/02 02:07:21;;;;;;;0.30;0.10;;;23.60;45.50;;;;;;6281229;28;20050;-42
2022/07/02 02:10:24;;;;;;;0.10;0.10;;;23.60;45.50;;;;;;6270060;28;20257;-45
2022/07/02 02:13:33;;;;;;;0.30;0.20;;;23.60;45.60;;;;;;6267906;28;21375;-42
2022/07/02 02:16:43;;;;;;;0.30;0.20;;;23.60;45.60;;;;;;6268335;28;20043;-43
2022/07/02 02:19:44;;;;;;;0.10;0.10;;;23.60;45.60;;;;;;6267009;28;20145;-44
2022/07/02 02:22:46;;;;;;;0.22;0.10;;;23.70;45.70;;;;;;6269401;28;20110;-45
2022/07/02 02:25:48;;;;;;;0.10;0.10;;;23.70;45.70;;;;;;6268398;28;20195;-46
2022/07/02 02:28:50;;;;;;;0.55;0.30;;;23.60;45.70;;;;;;6271304;28;20310;-44
2022/07/02 02:31:51;;;;;;;0.22;0.10;;;23.60;45.70;;;;;;6268809;28;20161;-42
2022/07/02 02:35:00;;;;;;;0.10;0.10;;;23.60;45.70;;;;;;6268726;28;20051;-45
2022/07/02 02:38:01;;;;;;;0.17;0.17;;;23.60;45.70;;;;;;6273792;28;20461;-44
2022/07/02 02:41:05;;;;;;;0.30;0.15;;;23.60;45.70;;;;;;6270142;28;20160;-46
2022/07/02 02:47:23;;;;;;;0.22;0.20;;;23.60;45.70;;;;;;6267405;28;20970;-43
2022/07/02 02:50:25;;;;;;;0.15;0.10;;;23.50;45.60;;;;;;6271995;28;20268;-42
2022/07/02 02:53:26;;;;;;;0.20;0.10;;;23.50;45.70;;;;;;6273899;28;20111;-45
2022/07/02 02:56:28;;;;;;;0.20;0.10;;;23.60;45.70;;;;;;6268399;28;20055;-44
2022/07/02 02:59:30;;;;;;;0.38;0.10;;;23.60;45.70;;;;;;6273418;28;20582;-44
2022/07/02 03:02:31;;;;;;;0.20;0.13;;;23.40;45.60;;;;;;6274253;28;20526;-44
2022/07/02 03:05:41;;;;;;;0.10;0.10;;;23.50;45.70;;;;;;6270916;28;20351;-42
2022/07/02 03:08:43;;;;;;;0.08;0.08;;;23.60;45.70;;;;;;6272290;28;20266;-44
2022/07/02 03:11:45;;;;;;;0.10;0.10;;;23.50;45.70;;;;;;6272210;28;20051;-44
2022/07/02 03:14:54;;;;;;;0.43;0.10;;;23.60;45.70;;;;;;6288513;28;20535;-47
2022/07/02 03:18:04;;;;;;;0.57;0.20;;;23.40;45.60;;;;;;6277364;28;20376;-44
2022/07/02 03:21:05;;;;;;;0.55;0.10;;;23.50;45.70;;;;;;6272771;28;20364;-46
2022/07/02 03:24:07;;;;;;;0.20;0.20;;;23.60;46.30;;;;;;6275032;28;20678;-43
2022/07/02 03:27:09;;;;;;;0.15;0.10;;;23.40;45.70;;;;;;6273634;28;20035;-41
2022/07/02 03:30:11;;;;;;;0.10;0.10;;;23.50;45.70;;;;;;6271290;28;20695;-47
2022/07/02 03:33:12;;;;;;;0.10;0.10;;;23.50;45.70;;;;;;6272651;28;20314;-46
2022/07/02 03:36:22;;;;;;;0.28;0.17;;;23.50;45.60;;;;;;6277614;28;20051;-47
2022/07/02 03:39:24;;;;;;;0.10;0.10;;;23.40;45.60;;;;;;6272903;28;20051;-43
2022/07/02 03:42:26;;;;;;;0.10;0.10;;;23.40;45.60;;;;;;6276907;28;20534;-44
2022/07/02 03:45:35;;;;;;;0.20;0.10;;;23.60;45.70;;;;;;6281826;28;20730;-45
2022/07/02 03:48:45;;;;;;;0.13;0.10;;;23.40;45.60;;;;;;6277171;28;20130;-44
2022/07/02 03:51:46;;;;;;;0.17;0.17;;;23.40;45.60;;;;;;6269935;28;20071;-46
2022/07/02 03:54:48;;;;;;;0.00;0.00;;;23.40;45.60;;;;;;6278180;28;20044;-48
2022/07/02 03:57:50;;;;;;;0.05;0.05;;;23.40;45.50;;;;;;6285534;28;20054;-47
2022/07/02 04:00:52;;;;;;;0.40;0.20;;;23.50;45.60;;;;;;6283947;28;20129;-46
2022/07/02 04:03:53;;;;;;;0.10;0.10;;;23.40;45.60;;;;;;6285455;28;20702;-45
2022/07/02 04:07:03;;;;;;;0.20;0.10;;;23.30;45.50;;;;;;6276199;28;20055;-44
2022/07/02 04:10:06;;;;;;;0.20;0.10;;;23.40;45.60;;;;;;6271500;28;21733;-45
2022/07/02 04:13:10;;;;;;;0.28;0.20;;;23.40;45.50;;;;;;6268859;28;20625;-45
2022/07/02 04:16:19;;;;;;;0.17;0.10;;;23.40;45.50;;;;;;6277366;28;20161;-43
2022/07/02 04:19:29;;;;;;;0.20;0.10;;;23.40;45.50;;;;;;6270144;28;20066;-42
2022/07/02 04:22:30;;;;;;;0.10;0.10;;;23.30;45.40;;;;;;6262973;28;20162;-44
2022/07/02 04:25:32;;;;;;;0.10;0.10;;;23.20;45.30;;;;;;6266985;28;20449;-45
2022/07/02 04:28:34;;;;;;;0.22;0.10;;;23.50;45.50;;;;;;6272435;28;20523;-44
2022/07/02 04:31:35;;;;;;;0.10;0.10;;;23.30;45.40;;;;;;6278313;28;20537;-46
2022/07/02 04:34:37;;;;;;;0.10;0.10;;;23.30;45.40;;;;;;6279699;28;20381;-44
2022/07/02 04:37:45;;;;;;;0.20;0.10;;;23.40;45.40;;;;;;6284173;28;20598;-44
2022/07/02 04:40:47;;;;;;;0.40;0.10;;;23.30;45.50;;;;;;6274850;28;20040;-47
2022/07/02 04:43:49;;;;;;;0.43;0.20;;;23.30;45.30;;;;;;6278313;28;20137;-45
2022/07/02 04:46:59;;;;;;;0.20;0.17;;;23.20;45.30;;;;;;6283784;28;20352;-43
2022/07/02 04:50:01;;;;;;;0.20;0.13;;;23.20;45.30;;;;;;6284277;28;20847;-45
2022/07/02 04:53:02;;;;;;;0.10;0.10;;;23.20;45.30;;;;;;6279692;28;20074;-45
2022/07/02 04:56:12;;;;;;;0.10;0.10;;;23.30;45.30;;;;;;6281886;28;20032;-48
2022/07/02 04:59:14;;;;;;;0.10;0.10;;;23.30;45.40;;;;;;6289402;28;20078;-42
2022/07/02 05:02:16;;;;;;;0.10;0.10;;;23.30;45.40;;;;;;6258600;28;20039;-46
2022/07/02 05:05:17;;;;;;;0.30;0.10;;;23.30;45.40;;;;;;6283036;28;20086;-49
2022/07/02 05:08:27;;;;;;;0.10;0.10;;;23.30;45.40;;;;;;6278853;28;20075;-46
2022/07/02 05:11:28;;;;;;;0.10;0.10;;;23.30;45.40;;;;;;6279793;28;20512;-48
2022/07/02 05:14:30;;;;;;;0.10;0.10;;;23.20;45.40;;;;;;6275716;28;20155;-42
2022/07/02 05:17:40;;;;;;;0.10;0.10;;;23.30;45.40;;;;;;6282001;28;20036;-45
2022/07/02 05:20:42;;;;;;;0.30;0.20;;;23.30;45.50;;;;;;6276030;28;20430;-45
2022/07/02 05:23:43;;;;;;;0.25;0.10;;;23.30;46.10;;;;;;6278023;28;20047;-45
2022/07/02 05:26:51;;;;;;;0.20;0.17;;;23.30;45.50;;;;;;6270503;28;20239;-45
2022/07/02 05:29:53;;;;;;;0.10;0.10;;;23.20;45.50;;;;;;6244148;28;20685;-44
2022/07/02 05:32:54;;;;;;;0.20;0.10;;;23.30;45.60;;;;;;6270607;28;20201;-45
2022/07/02 05:35:56;;;;;;;1.02;0.10;;;23.20;45.60;;;;;;6263745;28;20097;-45
2022/07/02 05:39:04;;;;;;;0.10;0.10;;;23.30;45.70;;;;;;6268620;28;20047;-43
2022/07/02 05:42:06;;;;;;;0.20;0.20;;;23.30;45.70;;;;;;6268890;28;20044;-43
2022/07/02 05:45:10;;;;;;;0.10;0.10;;;23.30;45.70;;;;;;6264897;28;20070;-43
2022/07/02 05:48:19;;;;;;;0.30;0.10;;;23.20;45.70;;;;;;6278575;28;20102;-44
2022/07/02 05:51:21;;;;;;;0.10;0.10;;;23.20;45.80;;;;;;6265702;28;20128;-40
2022/07/02 05:54:22;;;;;;;0.10;0.10;;;23.20;45.90;;;;;;6248709;28;20189;-45
2022/07/02 05:57:32;;;;;;;0.30;0.10;;;23.30;45.90;;;;;;6260378;28;20502;-44
2022/07/02 06:00:34;;;;;;;0.20;0.10;;;23.30;46.00;;;;;;6265624;28;20044;-44
2022/07/02 06:03:35;;;;;;;0.20;0.20;;;23.30;46.00;;;;;;6266350;28;20098;-43
2022/07/02 06:09:59;;;;;;;0.10;0.10;;;23.20;46.10;;;;;;6265141;28;20039;-43
2022/07/02 06:13:01;;;;;;;0.20;0.20;;;23.20;46.20;;;;;;6258341;28;20261;-46
2022/07/02 06:16:03;;;;;;;0.20;0.20;;;23.20;46.20;;;;;;6254221;28;20378;-41
2022/07/02 06:19:13;;;;;;;0.25;0.20;;;23.20;46.20;;;;;;6268209;28;20555;-43
2022/07/02 06:22:15;;;;;;;0.43;0.17;;;23.20;46.30;;;;;;6254930;28;20760;-45
2022/07/02 06:25:16;;;;;;;0.10;0.10;;;23.30;46.40;;;;;;6258688;28;20157;-45
2022/07/02 06:28:25;;;;;;;0.20;0.10;;;23.30;46.50;;;;;;6262118;28;20360;-45
2022/07/02 06:31:27;;;;;;;0.10;0.10;;;23.20;46.50;;;;;;6273788;28;20051;-43
2022/07/02 06:34:28;;;;;;;0.10;0.10;;;23.20;46.50;;;;;;6277612;28;20646;-41
2022/07/02 06:37:30;;;;;;;0.10;0.10;;;23.20;46.50;;;;;;6275015;28;20041;-46
2022/07/02 06:40:38;;;;;;;0.20;0.20;;;23.20;46.60;;;;;;6273189;28;20039;-47
2022/07/02 06:43:40;;;;;;;0.20;0.10;;;23.20;46.60;;;;;;6275903;28;20237;-44
2022/07/02 06:46:42;;;;;;;0.20;0.15;;;23.20;46.70;;;;;;6274666;28;20064;-42
2022/07/02 06:52:54;;;;;;;0.10;0.10;;;23.30;46.80;;;;;;6282421;28;20857;-43
2022/07/02 06:55:55;;;;;;;0.20;0.13;;;23.20;47.10;;;;;;6279671;28;20046;-44
2022/07/02 06:59:05;;;;;;;0.50;0.20;;;23.30;46.90;;;;;;6277952;28;20594;-41
2022/07/02 07:02:07;;;;;;;0.22;0.10;;;23.20;46.90;;;;;;6260729;28;20047;-43
2022/07/02 07:05:14;;;;;;;0.10;0.10;;;23.40;47.10;;;;;;6279464;28;20339;-44
2022/07/02 07:08:15;;;;;;;0.22;0.10;;;23.20;47.00;;;;;;6272232;28;20047;-45
2022/07/02 07:11:25;;;;;;;0.20;0.10;;;23.20;47.10;;;;;;6281046;28;20288;-43
2022/07/02 07:14:28;;;;;;;0.20;0.10;;;23.40;47.20;;;;;;6274450;28;20156;-43
2022/07/02 07:17:30;;;;;;;0.10;0.10;;;23.30;47.20;;;;;;6282781;28;20719;-42
2022/07/02 07:20:40;;;;;;;0.13;0.10;;;23.30;47.20;;;;;;6280340;28;20039;-44
2022/07/02 07:23:41;;;;;;;0.28;0.20;;;23.30;47.20;;;;;;6284663;28;20040;-42
2022/07/02 07:26:43;;;;;;;;;;;23.30;47.20;;;;;;6271783;28;20134;-43
2022/07/02 07:29:52;;;;;;;0.30;0.20;;;23.40;47.20;;;;;;6266968;28;20332;-43
2022/07/02 07:32:54;;;;;;;0.28;0.17;;;23.20;47.10;;;;;;6269818;28;20090;-47
2022/07/02 07:35:56;;;;;;;0.20;0.20;;;23.40;47.20;;;;;;6269739;28;20159;-44
2022/07/02 07:38:58;;;;;;;0.10;0.10;;;23.40;47.20;;;;;;6266518;28;20365;-44
2022/07/02 07:42:08;;;;;;;0.20;0.20;;;23.40;47.30;;;;;;6270693;28;20134;-45
2022/07/02 07:45:09;;;;;;;0.20;0.20;;;23.30;47.20;;;;;;6276743;28;20044;-43
2022/07/02 07:48:11;;;;;;;0.10;0.10;;;23.30;47.20;;;;;;6288127;28;20040;-44
2022/07/02 07:54:22;;;;;;;0.10;0.10;;;23.40;47.20;;;;;;6291388;28;20032;-43
2022/07/02 07:57:23;;;;;;;0.10;0.10;;;23.40;47.20;;;;;;6280901;28;20382;-42
2022/07/02 08:00:33;;;;;;;0.10;0.10;;;23.50;47.10;;;;;;6281545;28;20322;-44
2022/07/02 08:03:35;;;;;;;0.40;0.20;;;23.50;47.10;;;;;;6284112;28;20359;-43
2022/07/02 08:06:36;;;;;;;0.17;0.10;;;23.40;47.00;;;;;;6278335;28;20602;-45
2022/07/02 08:09:38;;;;;;;0.10;0.10;;;23.60;47.10;;;;;;6279541;28;20894;-43
2022/07/02 08:12:48;;;;;;;0.35;0.10;;;23.60;47.10;;;;;;6260667;28;20539;-42
2022/07/02 08:15:49;;;;;;;0.20;0.10;;;23.60;47.10;;;;;;6276513;28;20042;-44
2022/07/02 08:18:52;;;;;;;0.20;0.20;;;23.50;47.00;;;;;;6278038;28;20469;-43
2022/07/02 08:22:01;;;;;;;0.10;0.10;;;23.60;47.10;;;;;;6261005;28;20031;-41
2022/07/02 08:25:12;;;;;;;0.25;0.20;;;23.50;46.90;;;;;;6273617;28;20342;-43
2022/07/02 08:28:13;;;;;;;0.10;0.10;;;23.60;46.90;;;;;;6268632;28;20043;-43
2022/07/02 08:31:15;;;;;;;0.10;0.10;;;23.60;46.80;;;;;;6268179;28;20433;-45
2022/07/02 08:34:17;;;;;;;0.00;0.00;;;23.60;46.70;;;;;;6273350;28;20530;-44
2022/07/02 08:37:20;;;;;;;0.10;0.10;;;23.60;46.60;;;;;;6271532;28;20449;-45
2022/07/02 08:40:24;;;;;;;0.22;0.22;;;23.60;46.50;;;;;;6261880;28;20154;-42
2022/07/02 08:43:41;;;;;;;0.10;0.10;;;23.60;46.50;;;;;;6267472;28;20141;-41
2022/07/02 08:46:45;;;;;;;0.20;0.10;;;23.60;46.40;;;;;;6264692;28;20477;-41
2022/07/02 08:49:48;;;;;;;0.00;0.00;;;23.60;46.30;;;;;;6257000;28;20129;-46
2022/07/02 08:52:59;;;;;;;0.10;0.10;;;23.70;46.30;;;;;;6244716;28;20323;-43
2022/07/02 08:56:08;;;;;;;0.00;0.00;;;23.60;46.10;;;;;;6264762;28;20403;-45
2022/07/02 08:59:10;;;;;;;0.20;0.13;;;23.60;45.90;;;;;;6270090;28;20161;-42
2022/07/02 09:02:13;;;;;;;0.10;0.10;;;23.60;45.80;;;;;;6268042;28;20146;-45
2022/07/02 09:05:17;;;;;;;0.17;0.10;;;23.70;45.70;;;;;;6248822;28;20074;-45
2022/07/02 09:08:22;;;;;;;0.00;0.00;;;23.70;45.60;;;;;;6268305;28;20048;-45
2022/07/02 09:11:24;;;;;;;0.20;0.10;;;23.70;45.50;;;;;;6244970;28;22346;-41
2022/07/02 09:14:44;;;;;;;0.10;0.10;;;23.60;45.30;;;;;;6262300;28;20335;-45
2022/07/02 09:17:46;;;;;;;0.10;0.10;;;23.70;45.30;;;;;;6260070;28;20073;-45
2022/07/02 09:20:48;;;;;;;0.10;0.10;;;23.80;45.30;;;;;;6259906;28;20147;-46
2022/07/02 09:23:58;;;;;;;0.10;0.10;;;23.80;45.20;;;;;;6263550;28;20888;-45
2022/07/02 09:27:03;;;;;;;0.10;0.10;;;23.80;45.10;;;;;;6279654;28;20396;-44
2022/07/02 09:30:07;;;;;;;0.10;0.10;;;23.80;45.00;;;;;;6250845;28;20239;-45
2022/07/02 09:36:28;;;;;;;0.05;0.05;;;23.80;45.10;;;;;;6248621;28;20038;-43
2022/07/02 09:39:40;;;;;;;0.10;0.10;;;23.80;44.80;;;;;;6268034;28;20345;-43
2022/07/02 09:42:46;;;;;;;0.00;0.00;;;23.90;44.70;;;;;;6263567;28;20373;-44
2022/07/02 09:45:57;;;;;;;0.03;0.03;;;23.90;44.60;;;;;;6248086;28;20480;-43
2022/07/02 09:49:06;;;;;;;0.10;0.10;;;23.90;44.50;;;;;;6245269;28;20148;-44
2022/07/02 09:52:14;;;;;;;0.00;0.00;;;23.90;44.50;;;;;;6275639;28;20155;-45
2022/07/02 09:55:27;;;;;;;0.15;0.13;;;23.80;44.40;;;;;;6259079;28;20328;-46
2022/07/02 09:58:28;;;;;;;0.00;0.00;;;24.00;44.40;;;;;;6274861;28;20118;-42
2022/07/02 10:01:30;;;;;;;0.10;0.10;;;23.80;44.30;;;;;;6279774;28;20366;-42
2022/07/02 10:04:33;;;;;;;0.30;0.17;;;23.90;44.30;;;;;;6279056;28;20044;-44
2022/07/02 10:07:35;;;;;;;0.00;0.00;;;23.90;44.20;;;;;;6276585;28;20315;-46
2022/07/02 10:10:46;;;;;;;0.10;0.10;;;23.90;44.20;;;;;;6283496;28;20073;-46
2022/07/02 10:13:48;;;;;;;0.10;0.10;;;23.90;44.20;;;;;;6259102;28;20075;-45
2022/07/02 10:16:59;;;;;;;0.15;0.08;;;24.10;44.20;;;;;;6278464;28;20077;-44
2022/07/02 10:20:03;;;;;;;0.10;0.10;;;23.90;44.00;;;;;;6263900;28;20485;-45
2022/07/02 10:23:14;;;;;;;0.15;0.10;;;24.00;44.00;;;;;;6278093;28;20036;-43
2022/07/02 10:26:22;;;;;;;0.08;0.05;;;24.00;43.90;;;;;;6276779;28;20042;-43
2022/07/02 10:29:23;;;;;;;1.27;0.32;;;24.00;43.80;;;;;;6268172;28;20251;-45
2022/07/02 10:32:31;;;;;;;0.00;0.00;;;24.00;43.60;;;;;;6269678;28;20299;-43
2022/07/02 10:35:34;;;;;;;0.10;0.10;;;24.00;43.30;;;;;;6251621;28;20091;-45
2022/07/02 10:38:38;;;;;;;0.10;0.10;;;24.00;43.20;;;;;;6266946;28;20902;-41
2022/07/02 10:41:40;;;;;;;0.38;0.20;;;24.00;43.00;;;;;;6250087;28;20322;-41
2022/07/02 10:44:42;;;;;;;0.20;0.10;;;24.00;42.90;;;;;;6265227;28;20841;-45
2022/07/02 10:47:54;;;;;;;0.50;0.10;;;24.10;42.70;;;;;;6260009;28;20513;-43
2022/07/02 10:50:57;;;;;;;0.00;0.00;;;24.20;42.60;;;;;;6279437;28;20835;-41
2022/07/02 10:54:07;;;;;;;0.10;0.10;;;24.20;42.50;;;;;;6279660;28;20501;-42
2022/07/02 10:57:24;;;;;;;0.28;0.10;;;24.10;42.40;;;;;;6257038;28;20998;-43
2022/07/02 11:00:27;;;;;;;0.10;0.10;;;24.10;42.20;;;;;;6276322;28;20094;-41
2022/07/02 11:03:29;;;;;;;0.20;0.10;;;24.20;42.20;;;;;;6277020;28;20044;-43
2022/07/02 11:06:32;;;;;;;0.35;0.10;;;24.10;42.10;;;;;;6276501;28;20043;-41
2022/07/02 11:09:45;;;;;;;0.10;0.10;;;24.10;42.00;;;;;;6278455;28;20259;-44
2022/07/02 11:12:57;;;;;;;0.10;0.10;;;24.20;41.90;;;;;;6272708;28;20621;-41
2022/07/02 11:15:58;;;;;;;;;;;24.20;41.90;;;;;;6277912;28;20437;-46
2022/07/02 11:19:16;;;;;;;0.10;0.00;;;24.20;42.00;;;;;;6275449;28;19993;-42
2022/07/02 11:22:18;;;;;;;0.10;0.10;;;24.10;41.90;;;;;;6277612;28;20061;-45
2022/07/02 11:25:21;;;;;;;0.13;0.13;;;24.10;41.90;;;;;;6270248;28;20055;-41
2022/07/02 11:28:31;;;;;;;0.47;0.10;;;24.20;41.90;;;;;;6266461;28;20040;-48
2022/07/02 11:31:36;;;;;;;0.40;0.20;;;24.10;41.80;;;;;;6262473;28;20071;-42
2022/07/02 11:34:38;;;;;;;0.15;0.10;;;24.10;41.70;;;;;;6247664;28;20428;-47
2022/07/02 11:37:43;;;;;;;0.20;0.10;;;24.20;41.80;;;;;;6263651;28;20040;-43
2022/07/02 11:40:45;;;;;;;0.10;0.10;;;24.20;41.70;;;;;;6265681;28;20491;-43
2022/07/02 11:43:48;;;;;;;0.15;0.10;;;24.20;41.70;;;;;;6265565;28;20036;-45
2022/07/02 11:46:51;;;;;;;0.20;0.10;;;24.20;41.70;;;;;;6268983;28;20150;-44
2022/07/02 11:50:00;;;;;;;0.05;0.00;;;24.20;41.70;;;;;;6261075;28;20075;-44
2022/07/02 11:53:10;;;;;;;0.20;0.10;;;24.20;41.60;;;;;;6277571;28;20043;-45
2022/07/02 11:56:13;;;;;;;0.10;0.10;;;24.20;41.50;;;;;;6273267;28;20640;-43
2022/07/02 11:59:23;;;;;;;0.13;0.10;;;24.20;41.40;;;;;;6256729;28;20661;-43
2022/07/02 12:02:35;;;;;;;0.13;0.13;;;24.20;41.40;;;;;;6239798;28;20159;-42
2022/07/02 12:05:37;;;;;;;0.15;0.10;;;24.30;41.40;;;;;;6259151;28;20515;-41
2022/07/02 12:08:51;;;;;;;0.20;0.10;;;24.20;41.30;;;;;;6247572;28;20058;-41
2022/07/02 12:11:56;;;;;;;0.10;0.10;;;24.20;41.10;;;;;;6245109;28;20214;-42
2022/07/02 12:14:58;;;;;;;0.30;0.10;;;24.30;41.20;;;;;;6243920;28;20050;-42
2022/07/02 12:17:59;;;;;;;0.30;0.10;;;24.20;41.00;;;;;;6256651;28;20083;-44
2022/07/02 12:21:09;;;;;;;0.10;0.10;;;24.30;41.00;;;;;;6258782;28;20644;-43
2022/07/02 12:24:20;;;;;;;0.10;0.10;;;24.30;40.90;;;;;;6262331;28;20142;-44
2022/07/02 12:27:24;;;;;;;0.10;0.10;;;24.20;40.80;;;;;;6265605;28;20036;-44
2022/07/02 12:30:33;;;;;;;0.28;0.10;;;24.30;40.90;;;;;;6251032;28;20404;-45
2022/07/02 12:33:36;;;;;;;0.10;0.10;;;24.30;40.90;;;;;;6279117;28;20139;-43
2022/07/02 12:36:54;;;;;;;0.10;0.10;;;24.20;40.80;;;;;;6262021;28;20040;-44
2022/07/02 12:39:59;;;;;;;0.03;0.03;;;24.30;40.90;;;;;;6230667;28;20359;-44
2022/07/02 12:43:02;;;;;;;0.10;0.00;;;24.30;41.00;;;;;;6244836;28;20208;-46
2022/07/02 12:46:10;;;;;;;0.05;0.05;;;24.20;40.80;;;;;;6268269;28;20590;-44
2022/07/02 12:49:16;;;;;;;0.10;0.10;;;24.30;40.90;;;;;;6274901;28;20043;-42
2022/07/02 12:52:24;;;;;;;0.05;0.05;;;24.30;40.90;;;;;;6247713;28;20066;-45
2022/07/02 12:55:28;;;;;;;0.15;0.10;;;24.20;40.90;;;;;;6262284;28;20457;-43
2022/07/02 12:58:43;;;;;;;0.00;0.00;;;24.30;41.00;;;;;;6271390;28;20184;-47
2022/07/02 13:01:52;;;;;;;0.13;0.10;;;24.40;41.10;;;;;;6272177;28;20146;-43
2022/07/02 13:04:54;;;;;;;0.10;0.10;;;24.40;41.10;;;;;;6269934;28;20571;-43
2022/07/02 13:07:56;;;;;;;0.10;0.10;;;24.30;41.20;;;;;;6270645;28;20495;-43
2022/07/02 13:10:58;;;;;;;0.10;0.10;;;24.30;41.20;;;;;;6266914;28;20333;-42
2022/07/02 13:14:00;;;;;;;0.20;0.10;;;24.30;41.30;;;;;;6271665;28;20280;-44
2022/07/02 13:17:11;;;;;;;0.25;0.10;;;24.20;41.30;;;;;;6275323;28;20664;-45
2022/07/02 13:20:33;;;;;;;0.00;0.00;;;24.30;41.50;;;;;;6246769;28;20194;-44
2022/07/02 13:23:42;;;;;;;0.20;0.00;;;24.30;41.50;;;;;;6271057;28;20101;-42
2022/07/02 13:26:44;;;;;;;0.17;0.10;;;24.30;41.50;;;;;;6264921;28;20534;-46
2022/07/02 13:29:53;;;;;;;0.03;0.03;;;24.30;41.50;;;;;;6270052;28;20054;-42
2022/07/02 13:33:03;;;;;;;0.05;0.05;;;24.40;41.60;;;;;;6249986;28;20619;-42
2022/07/02 13:36:04;;;;;;;0.10;0.10;;;24.30;41.60;;;;;;6277111;28;20043;-43
2022/07/02 13:39:06;;;;;;;0.13;0.10;;;24.30;41.70;;;;;;6273195;28;20147;-44
2022/07/02 13:42:08;;;;;;;0.03;0.00;;;24.30;41.70;;;;;;6271527;28;20036;-45
2022/07/02 13:45:11;;;;;;;0.10;0.10;;;24.30;41.80;;;;;;6270115;28;20427;-43
2022/07/02 13:48:12;;;;;;;0.00;0.00;;;24.30;41.90;;;;;;6271240;28;20098;-42
2022/07/02 13:51:14;;;;;;;0.00;0.00;;;24.40;42.00;;;;;;6262705;28;20205;-44
2022/07/02 13:54:24;;;;;;;0.10;0.10;;;24.30;41.90;;;;;;6268755;28;20758;-42
2022/07/02 13:57:25;;;;;;;0.10;0.10;;;24.30;41.90;;;;;;6268688;28;20044;-46
2022/07/02 14:00:35;;;;;;;0.20;0.10;;;24.30;41.90;;;;;;6263619;28;20338;-46
2022/07/02 14:03:44;;;;;;;0.32;0.13;;;24.40;42.00;;;;;;6270408;28;20167;-45
2022/07/02 14:06:46;;;;;;;0.00;0.00;;;24.30;41.90;;;;;;6268071;28;20044;-46
2022/07/02 14:09:47;;;;;;;0.20;0.10;;;24.30;41.90;;;;;;6264546;28;20529;-43
2022/07/02 14:12:57;;;;;;;0.03;0.03;;;24.30;41.90;;;;;;6261994;28;20036;-42
2022/07/02 14:16:08;;;;;;;0.05;0.05;;;24.30;41.90;;;;;;6270718;28;20465;-45
2022/07/02 14:19:10;;;;;;;0.00;0.00;;;24.30;41.80;;;;;;6260771;28;20370;-44
2022/07/02 14:22:14;;;;;;;0.00;0.00;;;24.40;41.80;;;;;;6267939;28;20496;-46
2022/07/02 14:25:23;;;;;;;;;;;24.40;41.70;;;;;;6265972;28;20073;-42
2022/07/02 14:28:25;;;;;;;0.30;0.00;;;24.40;41.80;;;;;;6267309;28;20279;-44
2022/07/02 14:31:34;;;;;;;0.10;0.10;;;24.30;41.60;;;;;;6245761;28;20075;-45
2022/07/02 14:34:44;;;;;;;0.25;0.10;;;24.30;41.60;;;;;;6269560;28;20036;-46
2022/07/02 14:37:46;;;;;;;0.20;0.10;;;24.30;41.60;;;;;;6267480;28;20044;-43
2022/07/02 14:40:49;;;;;;;0.40;0.10;;;24.40;41.50;;;;;;6263318;28;20113;-44
2022/07/02 14:43:50;;;;;;;0.15;0.00;;;24.30;41.50;;;;;;6272461;28;20479;-48
2022/07/02 14:46:52;;;;;;;0.10;0.10;;;24.30;41.40;;;;;;6268513;28;20346;-45
2022/07/02 14:50:02;;;;;;;0.17;0.10;;;24.30;41.40;;;;;;6268019;28;20423;-43
2022/07/02 14:53:04;;;;;;;0.10;0.10;;;24.30;41.40;;;;;;6269508;28;20435;-43
2022/07/02 14:56:13;;;;;;;0.30;0.10;;;24.30;41.30;;;;;;6265678;28;20345;-42
2022/07/02 14:59:15;;;;;;;0.00;0.00;;;24.40;41.30;;;;;;6258909;28;20192;-45
2022/07/02 15:02:17;;;;;;;0.08;0.08;;;24.40;41.40;;;;;;6268455;28;20089;-45
2022/07/02 15:05:25;;;;;;;0.10;0.10;;;24.40;41.30;;;;;;6266481;28;20052;-45
2022/07/02 15:08:27;;;;;;;0.28;0.10;;;24.60;41.40;;;;;;6275891;28;20052;-41
2022/07/02 15:11:28;;;;;;;0.10;0.08;;;24.40;41.90;;;;;;6273739;28;20138;-47
2022/07/02 15:17:55;;;;;;;0.00;0.00;;;24.30;41.10;;;;;;6240742;28;20075;-44
2022/07/02 15:21:01;;;;;;;0.20;0.10;;;24.30;41.10;;;;;;6273680;28;20055;-45
2022/07/02 15:24:06;;;;;;;0.10;0.10;;;24.30;41.10;;;;;;6272417;28;20055;-43
2022/07/02 15:27:15;;;;;;;0.03;0.03;;;24.30;41.10;;;;;;6270433;28;20039;-47
2022/07/02 15:30:27;;;;;;;0.00;0.00;;;24.40;41.20;;;;;;6268103;28;20162;-44
2022/07/02 15:33:32;;;;;;;0.10;0.10;;;24.50;41.20;;;;;;6276612;28;20293;-45
2022/07/02 15:36:43;;;;;;;0.20;0.20;;;24.30;41.10;;;;;;6276782;28;20039;-42
2022/07/02 15:39:51;;;;;;;0.05;0.05;;;24.40;41.00;;;;;;6250322;28;20050;-45
2022/07/02 15:42:53;;;;;;;0.10;0.10;;;24.30;41.00;;;;;;6275581;28;20354;-43
2022/07/02 15:45:55;;;;;;;0.10;0.10;;;24.30;40.90;;;;;;6275244;28;20447;-42
2022/07/02 15:48:58;;;;;;;0.00;0.00;;;24.40;41.00;;;;;;6270254;28;20187;-47
2022/07/02 15:52:02;;;;;;;0.10;0.10;;;24.40;41.00;;;;;;6270342;28;20467;-44
2022/07/02 15:55:09;;;;;;;0.10;0.10;;;24.40;41.00;;;;;;6269751;28;20107;-45
2022/07/02 15:58:22;;;;;;;0.10;0.10;;;24.40;41.00;;;;;;6267476;28;20868;-43
2022/07/02 16:01:26;;;;;;;0.10;0.10;;;24.30;40.90;;;;;;6265628;28;20894;-41
2022/07/02 16:04:39;;;;;;;0.08;0.00;;;24.40;41.00;;;;;;6250452;28;20039;-44
2022/07/02 16:07:54;;;;;;;0.10;0.10;;;24.40;41.00;;;;;;6249521;28;20279;-43
2022/07/02 16:10:56;;;;;;;0.20;0.10;;;24.20;40.90;;;;;;6265950;28;20327;-42
2022/07/02 16:13:59;;;;;;;0.10;0.03;;;24.50;41.00;;;;;;6263897;28;20414;-42
2022/07/02 16:17:01;;;;;;;0.08;0.08;;;24.40;40.90;;;;;;6266447;28;20200;-43
2022/07/02 16:20:04;;;;;;;0.10;0.10;;;24.50;40.90;;;;;;6245704;28;20694;-46
2022/07/02 16:23:16;;;;;;;0.13;0.10;;;24.40;41.00;;;;;;6243874;28;20256;-45
2022/07/02 16:26:18;;;;;;;0.10;0.10;;;24.40;40.80;;;;;;6244597;28;20048;-45
2022/07/02 16:29:28;;;;;;;0.10;0.10;;;24.50;40.90;;;;;;6261837;28;20150;-47
2022/07/02 16:32:37;;;;;;;0.10;0.10;;;24.40;40.80;;;;;;6258032;28;20031;-47
2022/07/02 16:35:42;;;;;;;0.00;0.00;;;24.50;40.90;;;;;;6264262;28;20464;-43